WetterOnline ( https://www.wetteronline.de )

Wetter aktuell Westerwald (in 500m)

Aktuelles Wetter: Bad Marienberg (555m)

6-stündlich | Neueste Meldungen
Ortszeit Temperatur Wetter
So, 20.10. 8:00 10.5° C Nebel
So, 20.10. 2:00 10.7° C leichter Regen
Sa, 19.10. 20:00 11.1° C Sprühregen
Sa, 19.10. 14:00 11.0° C bewölkt
Sa, 19.10. 8:00 8.0° C bedeckt
Sa, 19.10. 2:00 7.3° C bewölkt
Fr, 18.10. 20:00 7.6° C fast wolkenlos
Fr, 18.10. 14:00 11.9° C bewölkt
Ortszeit Temperatur Wetter
So, 20.10. 11:30 11.7° C leichter Regen
So, 20.10. 11:20 11.7° C leichter Regen
So, 20.10. 11:10 11.9° C bewölkt
So, 20.10. 11:00 11.3° C leichter Regen
So, 20.10. 10:50 11.3° C leichter Regen
So, 20.10. 10:40 11.3° C leichter Regen
So, 20.10. 10:30 11.2° C leichter Regen
So, 20.10. 10:00 11.1° C Sprühregen
Ortszeit Relative Feuchte Sichtweite
So, 20.10. 8:00 100% 100 m
So, 20.10. 2:00 100% 0.9 km
Sa, 19.10. 20:00 99% 4.0 km
Sa, 19.10. 14:00 92% 45 km
Sa, 19.10. 8:00 94% 50 km
Sa, 19.10. 2:00 88% 40 km
Fr, 18.10. 20:00 85% >70 km
Fr, 18.10. 14:00 92% 40 km
Ortszeit Relative Feuchte Sichtweite
So, 20.10. 11:30 97% 13 km
So, 20.10. 11:20 97% -
So, 20.10. 11:10 98% -
So, 20.10. 11:00 99% 12 km
So, 20.10. 10:50 99% -
So, 20.10. 10:40 99% -
So, 20.10. 10:30 99% 12 km
So, 20.10. 10:00 100% 0.5 km
Ortszeit Niederschlagsmenge Niederschlagsart
So, 20.10. 8:00 6 l/m2 in 12 Std. Regen
So, 20.10. 2:00 2 l/m2 in 6 Std. Regen
Sa, 19.10. 20:00 3 l/m2 in 12 Std. Regen
Sa, 19.10. 14:00 0.3 l/m2 in 6 Std. Regen
Sa, 19.10. 8:00 0.1 l/m2 in 12 Std. Regen
Sa, 19.10. 2:00 0.0 l/m2 in 6 Std. -
Fr, 18.10. 20:00 2 l/m2 in 12 Std. Regenschauer
Fr, 18.10. 14:00 0.2 l/m2 in 6 Std. Regen
Ortszeit Niederschlagsmenge Niederschlagsart
So, 20.10. 11:30 0.1 l/m2 in 1 Std. -
So, 20.10. 11:20 keine Meldung -
So, 20.10. 11:10 keine Meldung -
So, 20.10. 11:00 0.3 l/m2 in 1 Std. Regen
So, 20.10. 10:50 keine Meldung -
So, 20.10. 10:40 keine Meldung -
So, 20.10. 10:30 0.2 l/m2 in 1 Std. -
So, 20.10. 10:00 0.1 l/m2 in 1 Std. Regen
Ortszeit Stärke Spitze Richtung
km/h Bft. km/h Grad Sektor
So, 20.10. 8:00 15 3 20 150° SO
So, 20.10. 2:00 7 2 29 180° S
Sa, 19.10. 20:00 14 3 40 210° SW
Sa, 19.10. 14:00 22 4 43 160° S
Sa, 19.10. 8:00 22 4 32 140° SO
Sa, 19.10. 2:00 11 2 22 180° S
Fr, 18.10. 20:00 9 2 54 210° SW
Fr, 18.10. 14:00 22 4 43 180° S
Ortszeit Stärke Spitze Richtung
km/h Bft. km/h Grad Sektor
So, 20.10. 11:30 14 3 22 150° SO
So, 20.10. 11:20 14 3 - 150° SO
So, 20.10. 11:10 15 3 - 140° SO
So, 20.10. 11:00 13 3 24 160° S
So, 20.10. 10:50 13 3 - 160° S
So, 20.10. 10:40 14 3 - 160° S
So, 20.10. 10:30 15 3 24 150° SO
So, 20.10. 10:00 11 2 18 160° S
Ortszeit Untergrenze Bedeckung Gattung
total tief tief mittel hoch
So, 20.10. 8:00 <30 m 8/8 0/8 - - -
So, 20.10. 2:00 <30 m 7/8 0/8 - - -
Sa, 19.10. 20:00 60 m 7/8 7/8 - - -
Sa, 19.10. 14:00 210 m 7/8 7/8 - - -
Sa, 19.10. 8:00 870 m 8/8 8/8 - - -
Sa, 19.10. 2:00 4200 m 7/8 6/8 - - -
Fr, 18.10. 20:00 9000 m 1/8 0/8 - - -
Fr, 18.10. 14:00 270 m 7/8 7/8 - - -
Ortszeit Bedeckungsgrad in Achtel und Wolkenuntergrenze
So, 20.10. 11:30 7(150m)
So, 20.10. 11:20 7(150m)
So, 20.10. 11:10 7(120m) 7(210m)
So, 20.10. 11:00 7(120m) 8(240m)
So, 20.10. 10:50 7(120m) 8(240m)
So, 20.10. 10:40 7(150m) 7(270m)
So, 20.10. 10:30 1(30m) 7(180m) 7(300m)
So, 20.10. 10:00 7(<30m) 7(120m) 8(330m)
Ortszeit Luftdruck NN (hPa) Tendenz (hPa in 3 Std.)
So, 20.10. 8:00 1008 + 0,5
So, 20.10. 2:00 1008 0,0
Sa, 19.10. 20:00 1007 + 0,7
Sa, 19.10. 14:00 1007 - 0,5
Sa, 19.10. 8:00 1008 - 1,3
Sa, 19.10. 2:00 1011 - 0,5
Fr, 18.10. 20:00 1012 + 1,4
Fr, 18.10. 14:00 1007 - 1,4
Ortszeit Luftdruck NN (hPa) Tendenz (hPa in 3 Std.)
So, 20.10. 11:30 1008 + 0,3
So, 20.10. 11:20 1008 keine Meldung
So, 20.10. 11:10 1008 keine Meldung
So, 20.10. 11:00 1008 + 0,3
So, 20.10. 10:50 1008 keine Meldung
So, 20.10. 10:40 1008 keine Meldung
So, 20.10. 10:30 1008 + 0,2
So, 20.10. 10:00 1008 0,0
Ortszeit Schneehöhe (cm)
So, 20.10. 8:00 0
So, 20.10. 2:00 0
Sa, 19.10. 20:00 0
Sa, 19.10. 14:00 0
Sa, 19.10. 8:00 0
Sa, 19.10. 2:00 0
Fr, 18.10. 20:00 0
Fr, 18.10. 14:00 0
Ortszeit Schneehöhe (cm)
So, 20.10. 11:30 0
So, 20.10. 11:20 0
So, 20.10. 11:10 0
So, 20.10. 11:00 0
So, 20.10. 10:50 0
So, 20.10. 10:40 0
So, 20.10. 10:30 0
So, 20.10. 10:00 0
Link zu dieser Seite / Seite empfehlen

Das Wetter in ...